Time;durP1;ratioP1;P1;durP2;ratioP2;P2;SDS_P1;SDS_P2;PMS_P1;PMS_P2;Temp;Humidity;BMP_temperature;BMP_pressure;BME280_temperature;BME280_humidity;BME280_pressure;Samples;Min_cycle;Max_cycle;Signal;HPM_P1;HPM_P2
2022/10/15 00:01:14;;;;;;;4.97;3.00;;;;;;;;;;1764429;80;21087;-71
2022/10/15 00:03:42;;;;;;;10.23;3.52;;;;;;;;;;1766148;80;21587;-71
2022/10/15 00:06:10;;;;;;;5.17;3.37;;;;;;;;;;1747208;80;21068;-71
2022/10/15 00:08:37;;;;;;;5.85;3.50;;;;;;;;;;1776887;80;21052;-71
2022/10/15 00:11:08;;;;;;;5.08;3.20;;;;;;;;;;1774410;80;21024;-71
2022/10/15 00:13:35;;;;;;;5.97;3.50;;;;;;;;;;1757736;80;21536;-71
2022/10/15 00:16:02;;;;;;;5.92;3.30;;;;;;;;;;1767702;80;21072;-71
2022/10/15 00:18:29;;;;;;;4.78;3.20;;;;;;;;;;1761566;80;21516;-71
2022/10/15 00:20:57;;;;;;;5.20;3.27;;;;;;;;;;1766484;80;21052;-71
2022/10/15 00:23:23;;;;;;;9.03;4.78;;;;;;;;;;1776766;80;21016;-71
2022/10/15 00:25:50;;;;;;;7.90;3.40;;;;;;;;;;1765565;80;21001;-71
2022/10/15 00:28:16;;;;;;;6.20;4.03;;;;;;;;;;1774757;80;21080;-71
2022/10/15 00:30:42;;;;;;;4.80;3.30;;;;;;;;;;1758578;80;21049;-71
2022/10/15 00:33:09;;;;;;;4.70;3.10;;;;;;;;;;1770761;80;21433;-71
2022/10/15 00:35:36;;;;;;;5.95;3.40;;;;;;;;;;1768311;80;20986;-71
2022/10/15 00:38:02;;;;;;;3.98;2.98;;;;;;;;;;1771589;80;21080;-71
2022/10/15 00:40:28;;;;;;;6.90;3.42;;;;;;;;;;1773833;80;21496;-71
2022/10/15 00:42:56;;;;;;;6.55;3.85;;;;;;;;;;1760545;80;21025;-71
2022/10/15 00:45:22;;;;;;;5.33;3.50;;;;;;;;;;1760835;80;21534;-71
2022/10/15 00:47:48;;;;;;;5.78;3.37;;;;;;;;;;1767152;80;21028;-71
2022/10/15 00:50:20;;;;;;;6.30;3.65;;;;;;;;;;1773720;80;21087;-71
2022/10/15 00:52:51;;;;;;;4.25;3.00;;;;;;;;;;1767835;80;21536;-71
2022/10/15 00:55:19;;;;;;;4.95;3.30;;;;;;;;;;1761232;80;21576;-71
2022/10/15 00:57:46;;;;;;;6.42;3.33;;;;;;;;;;1761023;81;21060;-71
2022/10/15 01:00:14;;;;;;;6.65;3.45;;;;;;;;;;1762296;80;21005;-71
2022/10/15 01:02:41;;;;;;;4.37;3.10;;;;;;;;;;1762795;80;20985;-71
2022/10/15 01:05:08;;;;;;;8.68;4.95;;;;;;;;;;1761570;81;21049;-71
2022/10/15 01:07:35;;;;;;;5.92;3.22;;;;;;;;;;1763371;81;21598;-69
2022/10/15 01:10:01;;;;;;;6.62;3.55;;;;;;;;;;1770156;81;21060;-69
2022/10/15 01:12:30;;;;;;;6.12;3.42;;;;;;;;;;1770680;80;21005;-69
2022/10/15 01:15:04;;;;;;;5.90;3.25;;;;;;;;;;1741887;81;21041;-69
2022/10/15 01:17:35;;;;;;;7.87;3.65;;;;;;;;;;1773280;80;21037;-69
2022/10/15 01:20:06;;;;;;;5.45;3.42;;;;;;;;;;1768019;80;21052;-71
2022/10/15 01:22:45;;;;;;;7.17;3.77;;;;;;;;;;1748223;81;21005;-70
2022/10/15 01:25:13;;;;;;;4.83;3.20;;;;;;;;;;1761178;81;21556;-70
2022/10/15 01:27:42;;;;;;;5.50;3.27;;;;;;;;;;1761211;81;21532;-70
2022/10/15 01:30:15;;;;;;;6.33;3.52;;;;;;;;;;1761155;81;21005;-71
2022/10/15 01:32:43;;;;;;;4.17;3.25;;;;;;;;;;1763003;81;21033;-71
2022/10/15 01:35:14;;;;;;;7.78;3.77;;;;;;;;;;1760289;80;21075;-71
2022/10/15 01:37:43;;;;;;;5.22;3.50;;;;;;;;;;1763709;81;21036;-70
2022/10/15 01:40:24;;;;;;;6.72;3.60;;;;;;;;;;1766316;81;20969;-70
2022/10/15 01:42:52;;;;;;;5.70;3.40;;;;;;;;;;1759328;80;21545;-70
2022/10/15 01:45:20;;;;;;;8.18;3.80;;;;;;;;;;1761246;81;21039;-70
2022/10/15 01:47:58;;;;;;;5.75;3.22;;;;;;;;;;1764147;81;21010;-70
2022/10/15 01:50:26;;;;;;;5.03;3.45;;;;;;;;;;1770104;81;20969;-70
2022/10/15 01:52:54;;;;;;;5.00;3.10;;;;;;;;;;1764175;80;20993;-70
2022/10/15 01:55:21;;;;;;;6.50;3.12;;;;;;;;;;1752913;81;21572;-69
2022/10/15 01:57:47;;;;;;;6.08;3.10;;;;;;;;;;1743783;81;21073;-69
2022/10/15 02:00:14;;;;;;;4.05;2.83;;;;;;;;;;1746868;81;21033;-70
2022/10/15 02:05:35;;;;;;;8.40;3.35;;;;;;;;;;1725866;80;21204;-78
2022/10/15 02:08:07;;;;;;;4.70;3.17;;;;;;;;;;1702205;82;21042;-78
2022/10/15 02:10:52;;;;;;;5.87;3.83;;;;;;;;;;1721947;82;21004;-78
2022/10/15 02:13:21;;;;;;;5.12;3.47;;;;;;;;;;1743712;82;21021;-77
2022/10/15 02:16:01;;;;;;;7.03;3.67;;;;;;;;;;1728835;82;21036;-78
2022/10/15 02:18:32;;;;;;;5.42;3.45;;;;;;;;;;1747793;82;21056;-78
2022/10/15 02:21:06;;;;;;;5.55;3.60;;;;;;;;;;1721366;82;21040;-77
2022/10/15 02:23:36;;;;;;;6.65;3.52;;;;;;;;;;1748588;82;20984;-77
2022/10/15 02:26:05;;;;;;;5.72;3.40;;;;;;;;;;1748952;82;21035;-76
2022/10/15 02:28:32;;;;;;;7.58;3.20;;;;;;;;;;1712327;82;21592;-76
2022/10/15 02:30:58;;;;;;;6.05;3.40;;;;;;;;;;1747477;82;21031;-77
2022/10/15 02:33:25;;;;;;;4.55;3.00;;;;;;;;;;1745940;82;21003;-78
2022/10/15 02:35:51;;;;;;;6.47;3.37;;;;;;;;;;1745945;80;21047;-79
2022/10/15 02:38:18;;;;;;;7.22;3.80;;;;;;;;;;1715022;82;21029;-78
2022/10/15 02:40:45;;;;;;;5.12;3.30;;;;;;;;;;1741413;82;20961;-78
2022/10/15 02:43:12;;;;;;;6.00;3.65;;;;;;;;;;1737747;82;21037;-78
2022/10/15 02:45:39;;;;;;;4.72;3.30;;;;;;;;;;1738377;82;21072;-79
2022/10/15 02:48:06;;;;;;;4.97;3.27;;;;;;;;;;1720237;82;21022;-78
2022/10/15 02:50:32;;;;;;;7.00;3.37;;;;;;;;;;1742122;82;21001;-78
2022/10/15 02:52:59;;;;;;;4.75;3.02;;;;;;;;;;1725338;80;21063;-77
2022/10/15 02:55:26;;;;;;;4.70;2.85;;;;;;;;;;1754926;80;21119;-78
2022/10/15 02:57:52;;;;;;;5.80;3.35;;;;;;;;;;1721482;82;21017;-78
2022/10/15 03:00:18;;;;;;;5.67;3.65;;;;;;;;;;1720282;81;21071;-78
2022/10/15 03:02:46;;;;;;;6.45;3.08;;;;;;;;;;1736288;82;21096;-79
2022/10/15 03:05:12;;;;;;;5.70;3.65;;;;;;;;;;1757738;80;21044;-78
2022/10/15 03:07:39;;;;;;;6.17;3.55;;;;;;;;;;1746936;82;22270;-78
2022/10/15 03:10:08;;;;;;;5.45;4.17;;;;;;;;;;1744961;81;21063;-78
2022/10/15 03:12:36;;;;;;;5.30;3.65;;;;;;;;;;1715497;82;21752;-79
2022/10/15 03:15:03;;;;;;;5.58;3.35;;;;;;;;;;1731429;82;20956;-78
2022/10/15 03:17:30;;;;;;;4.70;3.40;;;;;;;;;;1730531;82;21491;-78
2022/10/15 03:19:57;;;;;;;5.83;3.75;;;;;;;;;;1729931;82;21035;-78
2022/10/15 03:22:23;;;;;;;5.85;3.50;;;;;;;;;;1724286;80;21060;-78
2022/10/15 03:24:51;;;;;;;5.58;3.58;;;;;;;;;;1730845;82;21020;-77
2022/10/15 03:27:19;;;;;;;5.55;3.50;;;;;;;;;;1721499;82;21014;-78
2022/10/15 03:29:45;;;;;;;8.43;4.08;;;;;;;;;;1711759;83;20986;-78
2022/10/15 03:32:11;;;;;;;6.97;3.50;;;;;;;;;;1759886;80;21003;-77
2022/10/15 03:34:38;;;;;;;5.53;3.20;;;;;;;;;;1766437;80;21511;-78
2022/10/15 03:37:04;;;;;;;4.50;2.95;;;;;;;;;;1756115;80;21017;-78
2022/10/15 03:39:31;;;;;;;8.25;3.98;;;;;;;;;;1742001;80;20982;-78
2022/10/15 03:41:59;;;;;;;5.53;3.30;;;;;;;;;;1748386;82;21026;-77
2022/10/15 03:44:27;;;;;;;4.80;3.27;;;;;;;;;;1724440;82;20972;-78
2022/10/15 03:46:55;;;;;;;6.97;3.58;;;;;;;;;;1711103;82;20991;-78
2022/10/15 03:49:21;;;;;;;6.92;4.00;;;;;;;;;;1716499;82;21026;-78
2022/10/15 03:51:48;;;;;;;5.60;3.47;;;;;;;;;;1728521;82;20972;-78
2022/10/15 03:54:17;;;;;;;4.67;2.95;;;;;;;;;;1717356;83;21017;-78
2022/10/15 03:56:44;;;;;;;6.50;3.40;;;;;;;;;;1732159;82;21051;-73
2022/10/15 03:59:21;;;;;;;6.45;3.40;;;;;;;;;;1722801;83;20983;-76
2022/10/15 04:01:49;;;;;;;6.47;3.58;;;;;;;;;;1716978;83;20975;-77
2022/10/15 04:04:16;;;;;;;7.05;3.42;;;;;;;;;;1724179;82;21085;-77
2022/10/15 04:06:46;;;;;;;5.17;3.40;;;;;;;;;;1729169;82;21042;-82
2022/10/15 04:09:13;;;;;;;5.35;3.08;;;;;;;;;;1729464;83;21022;-81
2022/10/15 04:11:39;;;;;;;5.50;2.95;;;;;;;;;;1767482;81;20983;-83
2022/10/15 04:14:06;;;;;;;6.58;3.35;;;;;;;;;;1744740;80;20985;-83
2022/10/15 04:16:32;;;;;;;6.58;3.95;;;;;;;;;;1728452;81;21073;-82
2022/10/15 04:19:00;;;;;;;10.75;3.90;;;;;;;;;;1758144;80;21041;-78
2022/10/15 04:21:26;;;;;;;5.65;3.70;;;;;;;;;;1724963;82;21010;-79
2022/10/15 04:23:54;;;;;;;7.87;4.20;;;;;;;;;;1727919;81;21078;-81
2022/10/15 04:26:22;;;;;;;8.18;4.90;;;;;;;;;;1756080;81;21023;-81
2022/10/15 04:28:48;;;;;;;9.65;5.35;;;;;;;;;;1754677;80;21013;-81
2022/10/15 04:31:15;;;;;;;7.80;4.35;;;;;;;;;;1781179;80;21538;-82
2022/10/15 04:33:42;;;;;;;6.17;3.67;;;;;;;;;;1762875;80;21008;-82
2022/10/15 04:36:11;;;;;;;7.10;4.05;;;;;;;;;;1767443;80;21523;-80
2022/10/15 04:38:51;;;;;;;6.67;4.40;;;;;;;;;;1757332;81;20976;-80
2022/10/15 04:41:19;;;;;;;7.85;3.85;;;;;;;;;;1752899;81;21053;-79
2022/10/15 04:43:56;;;;;;;4.83;3.72;;;;;;;;;;1767388;80;21019;-80
2022/10/15 04:46:22;;;;;;;7.12;3.58;;;;;;;;;;1771354;80;21040;-79
2022/10/15 04:48:49;;;;;;;7.30;4.12;;;;;;;;;;1763398;81;21552;-80
2022/10/15 04:51:17;;;;;;;6.67;4.40;;;;;;;;;;1781766;80;20998;-80
2022/10/15 04:53:54;;;;;;;7.35;4.58;;;;;;;;;;1706961;83;21491;-79
2022/10/15 04:56:20;;;;;;;8.90;5.17;;;;;;;;;;1758018;82;21447;-81
2022/10/15 04:58:47;;;;;;;10.70;5.97;;;;;;;;;;1725582;83;21033;-81
2022/10/15 05:01:14;;;;;;;8.08;5.22;;;;;;;;;;1722414;83;20978;-80
2022/10/15 05:03:58;;;;;;;8.95;4.60;;;;;;;;;;1754798;80;21058;-80
2022/10/15 05:06:24;;;;;;;8.90;4.67;;;;;;;;;;1716401;83;21077;-81
2022/10/15 05:08:53;;;;;;;9.45;6.05;;;;;;;;;;1732112;82;22065;-80
2022/10/15 05:11:22;;;;;;;10.32;5.95;;;;;;;;;;1728141;82;21039;-79
2022/10/15 05:13:49;;;;;;;21.85;10.08;;;;;;;;;;1727566;83;21106;-80
2022/10/15 05:16:17;;;;;;;27.98;11.45;;;;;;;;;;1727498;83;21122;-79
2022/10/15 05:18:44;;;;;;;29.48;12.45;;;;;;;;;;1727989;82;21590;-81
2022/10/15 05:21:10;;;;;;;22.60;8.68;;;;;;;;;;1700706;83;21008;-80
2022/10/15 05:23:39;;;;;;;14.05;5.95;;;;;;;;;;1726873;83;21063;-80
2022/10/15 05:26:11;;;;;;;7.15;3.77;;;;;;;;;;1726346;83;21013;-81
2022/10/15 05:28:38;;;;;;;5.85;3.47;;;;;;;;;;1727077;83;21547;-80
2022/10/15 05:31:05;;;;;;;5.17;3.35;;;;;;;;;;1714816;83;21056;-80
2022/10/15 05:33:32;;;;;;;13.70;3.85;;;;;;;;;;1724567;82;21024;-79
2022/10/15 05:36:00;;;;;;;9.33;4.17;;;;;;;;;;1726926;83;20992;-79
2022/10/15 05:38:26;;;;;;;8.50;5.80;;;;;;;;;;1721972;83;21039;-78
2022/10/15 05:40:52;;;;;;;10.03;5.40;;;;;;;;;;1714123;83;21592;-80
2022/10/15 05:43:21;;;;;;;8.60;5.30;;;;;;;;;;1721945;83;21020;-78
2022/10/15 05:45:47;;;;;;;6.83;4.00;;;;;;;;;;1721437;83;21015;-78
2022/10/15 05:48:14;;;;;;;5.12;3.52;;;;;;;;;;1727139;82;21015;-80
2022/10/15 05:50:40;;;;;;;7.62;3.33;;;;;;;;;;1718445;82;21572;-80
2022/10/15 05:53:08;;;;;;;6.75;3.05;;;;;;;;;;1707421;83;21015;-80
2022/10/15 05:55:45;;;;;;;6.85;3.17;;;;;;;;;;1723088;83;21000;-80
2022/10/15 05:58:11;;;;;;;5.90;3.30;;;;;;;;;;1684010;84;21121;-80
2022/10/15 06:00:38;;;;;;;5.62;3.45;;;;;;;;;;1716786;83;21019;-80
2022/10/15 06:03:04;;;;;;;9.03;3.65;;;;;;;;;;1704449;83;21115;-79
2022/10/15 06:05:30;;;;;;;8.33;4.25;;;;;;;;;;1727945;81;21008;-80
2022/10/15 06:07:56;;;;;;;16.95;6.45;;;;;;;;;;1732571;83;21033;-79
2022/10/15 06:10:23;;;;;;;7.70;4.42;;;;;;;;;;1697746;84;20972;-79
2022/10/15 06:12:50;;;;;;;14.85;4.28;;;;;;;;;;1716884;83;21100;-79
2022/10/15 06:15:18;;;;;;;5.35;3.50;;;;;;;;;;1735334;81;21542;-78
2022/10/15 06:17:45;;;;;;;6.95;4.65;;;;;;;;;;1728595;81;21024;-78
2022/10/15 06:20:12;;;;;;;4.83;3.17;;;;;;;;;;1716172;81;21054;-78
2022/10/15 06:22:40;;;;;;;6.72;4.78;;;;;;;;;;1733601;81;21091;-78
2022/10/15 06:25:07;;;;;;;7.58;4.17;;;;;;;;;;1732753;81;21548;-78
2022/10/15 06:27:33;;;;;;;5.87;3.98;;;;;;;;;;1725700;83;21475;-79
2022/10/15 06:29:59;;;;;;;7.42;4.12;;;;;;;;;;1697753;83;21013;-79
2022/10/15 06:32:26;;;;;;;7.20;3.65;;;;;;;;;;1692107;84;21075;-79
2022/10/15 06:34:52;;;;;;;6.85;3.62;;;;;;;;;;1698960;84;21034;-79
2022/10/15 06:37:18;;;;;;;8.83;3.55;;;;;;;;;;1699439;84;21028;-79
2022/10/15 06:39:45;;;;;;;5.90;3.35;;;;;;;;;;1718185;83;20997;-79
2022/10/15 06:42:11;;;;;;;5.67;3.50;;;;;;;;;;1731301;81;21006;-79
2022/10/15 06:44:38;;;;;;;6.53;4.05;;;;;;;;;;1692437;84;21514;-79
2022/10/15 06:47:04;;;;;;;8.38;4.65;;;;;;;;;;1733120;81;21100;-78
2022/10/15 06:49:31;;;;;;;4.53;3.35;;;;;;;;;;1724156;83;21038;-79
2022/10/15 06:51:57;;;;;;;7.97;4.22;;;;;;;;;;1724403;83;21094;-80
2022/10/15 06:54:24;;;;;;;9.83;5.50;;;;;;;;;;1722702;83;21015;-79
2022/10/15 06:56:50;;;;;;;5.80;3.87;;;;;;;;;;1701804;83;21037;-78
2022/10/15 06:59:16;;;;;;;5.35;3.20;;;;;;;;;;1722879;83;21032;-78
2022/10/15 07:01:42;;;;;;;6.97;3.15;;;;;;;;;;1725670;83;21514;-78
2022/10/15 07:04:08;;;;;;;4.55;2.90;;;;;;;;;;1725903;82;22321;-78
2022/10/15 07:06:34;;;;;;;7.58;2.58;;;;;;;;;;1753908;81;20980;-78
2022/10/15 07:09:01;;;;;;;4.50;2.77;;;;;;;;;;1760815;81;20991;-78
2022/10/15 07:11:28;;;;;;;5.03;2.80;;;;;;;;;;1743608;81;21055;-79
2022/10/15 07:13:56;;;;;;;4.05;2.67;;;;;;;;;;1740574;82;21108;-79
2022/10/15 07:16:25;;;;;;;6.45;2.95;;;;;;;;;;1728712;83;21072;-77
2022/10/15 07:18:51;;;;;;;4.53;3.02;;;;;;;;;;1729515;81;21059;-77
2022/10/15 07:21:17;;;;;;;4.35;2.85;;;;;;;;;;1737367;81;21527;-77
2022/10/15 07:23:44;;;;;;;5.50;2.90;;;;;;;;;;1721514;83;21751;-78
2022/10/15 07:26:11;;;;;;;6.05;3.65;;;;;;;;;;1733940;81;21017;-78
2022/10/15 07:28:37;;;;;;;5.37;3.10;;;;;;;;;;1730648;81;20988;-78
2022/10/15 07:31:04;;;;;;;5.12;3.10;;;;;;;;;;1729966;81;21043;-78
2022/10/15 07:33:34;;;;;;;5.15;2.92;;;;;;;;;;1728450;83;21047;-79
2022/10/15 07:36:02;;;;;;;6.53;3.20;;;;;;;;;;1729706;83;21503;-78
2022/10/15 07:38:28;;;;;;;6.28;3.40;;;;;;;;;;1733636;81;21055;-79
2022/10/15 07:41:01;;;;;;;5.83;3.42;;;;;;;;;;1748978;81;21076;-79
2022/10/15 07:43:29;;;;;;;4.85;3.15;;;;;;;;;;1728609;83;21611;-78
2022/10/15 07:45:56;;;;;;;4.92;2.90;;;;;;;;;;1730202;83;21044;-78
2022/10/15 07:48:22;;;;;;;4.30;2.72;;;;;;;;;;1729391;81;21055;-79
2022/10/15 07:50:55;;;;;;;5.00;3.20;;;;;;;;;;1742877;81;21364;-79
2022/10/15 07:53:21;;;;;;;5.27;3.30;;;;;;;;;;1729279;83;20984;-80
2022/10/15 07:55:49;;;;;;;7.25;2.90;;;;;;;;;;1730063;82;21574;-79
2022/10/15 07:58:16;;;;;;;3.95;2.30;;;;;;;;;;1730254;83;21091;-79
2022/10/15 08:00:42;;;;;;;5.58;2.67;;;;;;;;;;1732053;81;21020;-79
2022/10/15 08:03:09;;;;;;;2.83;2.00;;;;;;;;;;1730370;83;21209;-79
2022/10/15 08:05:35;;;;;;;6.67;2.50;;;;;;;;;;1743345;81;21013;-77
2022/10/15 08:08:02;;;;;;;4.80;2.47;;;;;;;;;;1762278;80;21072;-79
2022/10/15 08:10:30;;;;;;;3.75;2.20;;;;;;;;;;1767928;80;21479;-77
2022/10/15 08:12:57;;;;;;;3.65;2.40;;;;;;;;;;1762957;81;21051;-79
2022/10/15 08:15:25;;;;;;;5.62;3.17;;;;;;;;;;1781448;80;21008;-79
2022/10/15 08:17:53;;;;;;;8.90;3.95;;;;;;;;;;1760761;80;21014;-78
2022/10/15 08:20:19;;;;;;;10.95;2.77;;;;;;;;;;1762294;81;20963;-79
2022/10/15 08:22:45;;;;;;;3.95;2.10;;;;;;;;;;1759006;80;21003;-82
2022/10/15 08:25:11;;;;;;;19.25;3.22;;;;;;;;;;1753226;81;22182;-79
2022/10/15 08:27:37;;;;;;;3.25;1.82;;;;;;;;;;1730441;82;21002;-81
2022/10/15 08:30:03;;;;;;;3.67;2.15;;;;;;;;;;1752791;81;21063;-81
2022/10/15 08:32:29;;;;;;;4.55;2.00;;;;;;;;;;1772002;81;21548;-83
2022/10/15 08:34:55;;;;;;;3.37;1.77;;;;;;;;;;1737044;81;21072;-83
2022/10/15 08:37:21;;;;;;;4.05;2.00;;;;;;;;;;1734222;82;20977;-83
2022/10/15 08:39:47;;;;;;;34.88;4.35;;;;;;;;;;1731614;82;21021;-81
2022/10/15 08:42:19;;;;;;;4.55;2.17;;;;;;;;;;1768821;80;20995;-81
2022/10/15 08:44:46;;;;;;;3.55;1.70;;;;;;;;;;1769292;80;21044;-81
2022/10/15 08:47:14;;;;;;;3.02;2.00;;;;;;;;;;1735656;82;21009;-81
2022/10/15 08:49:45;;;;;;;4.03;1.80;;;;;;;;;;1767269;80;20997;-82
2022/10/15 08:52:25;;;;;;;2.40;1.80;;;;;;;;;;1719343;81;21044;-81
2022/10/15 08:54:53;;;;;;;4.85;2.70;;;;;;;;;;1765551;81;21104;-83
2022/10/15 08:57:28;;;;;;;3.33;2.70;;;;;;;;;;1767730;80;20974;-80
2022/10/15 08:59:59;;;;;;;2.98;2.10;;;;;;;;;;1769631;80;21021;-80
2022/10/15 09:02:30;;;;;;;8.18;2.70;;;;;;;;;;1751286;80;21097;-80
2022/10/15 09:05:16;;;;;;;4.05;2.33;;;;;;;;;;1767765;81;21619;-82
2022/10/15 09:07:45;;;;;;;5.00;2.50;;;;;;;;;;1784218;80;21539;-81
2022/10/15 09:10:13;;;;;;;4.10;2.70;;;;;;;;;;1735573;81;21064;-81
2022/10/15 09:12:56;;;;;;;2.90;2.12;;;;;;;;;;1767724;80;21280;-81
2022/10/15 09:15:23;;;;;;;3.00;2.08;;;;;;;;;;1773804;80;21017;-82
2022/10/15 09:17:50;;;;;;;3.55;2.00;;;;;;;;;;1771088;80;21020;-79
2022/10/15 09:20:21;;;;;;;4.08;1.75;;;;;;;;;;1772794;81;21196;-80
2022/10/15 09:22:50;;;;;;;14.60;2.65;;;;;;;;;;1770529;80;21069;-84
2022/10/15 09:25:17;;;;;;;3.98;1.87;;;;;;;;;;1787168;80;21020;-80
2022/10/15 09:27:44;;;;;;;7.83;2.27;;;;;;;;;;1793897;80;20956;-79
2022/10/15 09:30:24;;;;;;;4.87;1.82;;;;;;;;;;1751977;81;21535;-81
2022/10/15 09:32:52;;;;;;;3.67;2.17;;;;;;;;;;1769619;80;21478;-81
2022/10/15 09:35:24;;;;;;;3.77;2.02;;;;;;;;;;1782179;80;21064;-81
2022/10/15 09:37:55;;;;;;;5.80;2.45;;;;;;;;;;1738211;82;21051;-81
2022/10/15 09:40:29;;;;;;;2.40;1.75;;;;;;;;;;1722410;82;21063;-80
2022/10/15 09:42:57;;;;;;;3.40;1.87;;;;;;;;;;1730798;81;21556;-80
2022/10/15 09:45:23;;;;;;;2.55;1.65;;;;;;;;;;1733623;82;22026;-80
2022/10/15 09:47:49;;;;;;;3.22;1.90;;;;;;;;;;1773395;80;21476;-81
2022/10/15 09:50:17;;;;;;;4.62;2.30;;;;;;;;;;1744842;81;21020;-81
2022/10/15 09:52:59;;;;;;;4.22;2.50;;;;;;;;;;1736953;81;21018;-81
2022/10/15 09:55:42;;;;;;;2.90;1.90;;;;;;;;;;1718608;81;21757;-81
2022/10/15 09:58:13;;;;;;;3.93;2.03;;;;;;;;;;1768340;81;21069;-80
2022/10/15 10:00:47;;;;;;;3.72;2.00;;;;;;;;;;1764524;80;21075;-81
2022/10/15 10:03:14;;;;;;;4.62;2.52;;;;;;;;;;1719912;80;21023;-81
2022/10/15 10:05:40;;;;;;;7.15;2.20;;;;;;;;;;1757804;81;21073;-80
2022/10/15 10:08:07;;;;;;;4.55;2.60;;;;;;;;;;1730016;82;22289;-79
2022/10/15 10:10:33;;;;;;;5.87;3.25;;;;;;;;;;1718074;82;21038;-78
2022/10/15 10:13:00;;;;;;;4.83;2.42;;;;;;;;;;1711135;83;21016;-79
2022/10/15 10:15:36;;;;;;;4.12;2.30;;;;;;;;;;1731128;82;21035;-78
2022/10/15 10:18:07;;;;;;;4.35;2.25;;;;;;;;;;1718733;82;21107;-77
2022/10/15 10:20:34;;;;;;;3.72;2.12;;;;;;;;;;1716813;82;21484;-78
2022/10/15 10:23:01;;;;;;;4.78;2.20;;;;;;;;;;1742691;82;21541;-77
2022/10/15 10:25:32;;;;;;;3.20;2.47;;;;;;;;;;1717810;82;21094;-77
2022/10/15 10:28:13;;;;;;;5.00;2.40;;;;;;;;;;1739695;82;21614;-77
2022/10/15 10:30:44;;;;;;;4.72;2.60;;;;;;;;;;1692980;83;21042;-78
2022/10/15 10:33:12;;;;;;;6.58;2.27;;;;;;;;;;1736246;82;21538;-77
2022/10/15 10:35:45;;;;;;;5.53;2.45;;;;;;;;;;1741118;82;21075;-77
2022/10/15 10:38:19;;;;;;;4.08;2.40;;;;;;;;;;1734366;81;20988;-76
2022/10/15 10:40:47;;;;;;;4.08;2.25;;;;;;;;;;1718510;82;21019;-77
2022/10/15 10:43:18;;;;;;;4.37;2.45;;;;;;;;;;1711334;82;21051;-78
2022/10/15 10:45:52;;;;;;;4.03;2.27;;;;;;;;;;1722471;82;20991;-78
2022/10/15 10:48:19;;;;;;;7.65;3.00;;;;;;;;;;1716099;82;21020;-76
2022/10/15 10:50:44;;;;;;;5.85;3.20;;;;;;;;;;1720340;82;21015;-76
2022/10/15 10:53:12;;;;;;;14.53;3.10;;;;;;;;;;1715126;82;21454;-74
2022/10/15 10:55:40;;;;;;;5.08;2.90;;;;;;;;;;1710640;83;21881;-75
2022/10/15 10:58:08;;;;;;;5.40;2.77;;;;;;;;;;1711893;82;21000;-75
2022/10/15 11:00:36;;;;;;;13.75;3.17;;;;;;;;;;1701867;82;21559;-74
2022/10/15 11:03:05;;;;;;;3.50;2.50;;;;;;;;;;1719165;82;22408;-75
2022/10/15 11:05:32;;;;;;;12.80;2.70;;;;;;;;;;1708898;82;21044;-80
2022/10/15 11:08:16;;;;;;;4.08;2.50;;;;;;;;;;1709807;83;21021;-78
2022/10/15 11:10:50;;;;;;;5.30;2.58;;;;;;;;;;1699363;83;21020;-78
2022/10/15 11:13:21;;;;;;;5.28;2.42;;;;;;;;;;1729249;82;21006;-78
2022/10/15 11:16:00;;;;;;;3.42;2.22;;;;;;;;;;1725533;81;21552;-73
2022/10/15 11:18:34;;;;;;;3.62;2.20;;;;;;;;;;1739811;81;21036;-76
2022/10/15 11:21:14;;;;;;;4.95;2.42;;;;;;;;;;1727024;83;21402;-75
2022/10/15 11:23:49;;;;;;;4.35;2.65;;;;;;;;;;1723806;82;22151;-74
2022/10/15 11:26:26;;;;;;;6.30;2.40;;;;;;;;;;1728573;83;21105;-74
2022/10/15 11:29:06;;;;;;;4.92;2.50;;;;;;;;;;1728576;82;21037;-74
2022/10/15 11:31:34;;;;;;;5.15;2.17;;;;;;;;;;1723985;82;21073;-74
2022/10/15 11:34:02;;;;;;;4.95;2.62;;;;;;;;;;1710394;82;21278;-74
2022/10/15 11:36:46;;;;;;;6.40;2.80;;;;;;;;;;1698718;83;21029;-73
2022/10/15 11:39:21;;;;;;;5.90;2.72;;;;;;;;;;1719910;83;21076;-74
2022/10/15 11:42:01;;;;;;;16.30;2.65;;;;;;;;;;1737793;81;21052;-74
2022/10/15 11:44:47;;;;;;;7.65;2.50;;;;;;;;;;1706557;83;21041;-74
2022/10/15 11:47:29;;;;;;;8.35;5.12;;;;;;;;;;1682818;83;21061;-75
2022/10/15 11:50:01;;;;;;;7.90;4.25;;;;;;;;;;1703854;83;21337;-75
2022/10/15 11:52:35;;;;;;;7.20;3.05;;;;;;;;;;1713059;83;21547;-74
2022/10/15 11:55:04;;;;;;;8.83;3.00;;;;;;;;;;1703763;84;21040;-74
2022/10/15 11:57:31;;;;;;;4.72;2.40;;;;;;;;;;1705194;83;21072;-74
2022/10/15 11:59:59;;;;;;;4.87;2.30;;;;;;;;;;1719787;82;21584;-74
2022/10/15 12:02:36;;;;;;;11.10;2.67;;;;;;;;;;1736745;82;21041;-73
2022/10/15 12:05:11;;;;;;;7.05;2.35;;;;;;;;;;1731303;82;21617;-74
2022/10/15 12:07:42;;;;;;;7.62;2.70;;;;;;;;;;1742201;81;21547;-73
2022/10/15 12:10:12;;;;;;;5.72;2.58;;;;;;;;;;1737895;80;21491;-73
2022/10/15 12:13:25;;;;;;;3.83;2.45;;;;;;;;;;1803922;79;22892;-72
2022/10/15 12:16:01;;;;;;;4.12;2.35;;;;;;;;;;1761429;81;21064;-72
2022/10/15 12:18:32;;;;;;;4.53;2.12;;;;;;;;;;1760401;81;21044;-72
2022/10/15 12:20:58;;;;;;;4.83;2.20;;;;;;;;;;1761614;81;21045;-72
2022/10/15 12:23:27;;;;;;;9.00;2.50;;;;;;;;;;1752076;81;21026;-72
2022/10/15 12:25:54;;;;;;;7.50;2.50;;;;;;;;;;1743383;81;21108;-72
2022/10/15 12:28:21;;;;;;;5.97;2.37;;;;;;;;;;1758277;81;21091;-72
2022/10/15 12:30:55;;;;;;;3.10;2.17;;;;;;;;;;1771753;80;20956;-72
2022/10/15 12:33:23;;;;;;;11.53;2.60;;;;;;;;;;1795464;80;21098;-72
2022/10/15 12:35:56;;;;;;;2.83;2.00;;;;;;;;;;1795684;80;21076;-72
2022/10/15 12:38:27;;;;;;;4.15;2.25;;;;;;;;;;1795946;80;21071;-73
2022/10/15 12:40:54;;;;;;;3.20;2.25;;;;;;;;;;1756609;80;21115;-72
2022/10/15 12:43:21;;;;;;;10.43;2.45;;;;;;;;;;1755634;82;21111;-73
2022/10/15 12:45:49;;;;;;;4.10;2.27;;;;;;;;;;1755305;82;21095;-72
2022/10/15 12:48:30;;;;;;;3.33;2.00;;;;;;;;;;1755346;82;21067;-71
2022/10/15 12:51:14;;;;;;;4.78;2.20;;;;;;;;;;1755212;81;21063;-72
2022/10/15 12:53:41;;;;;;;5.17;2.95;;;;;;;;;;1755815;82;21024;-72
2022/10/15 12:56:15;;;;;;;5.25;3.40;;;;;;;;;;1755786;82;21048;-72
2022/10/15 12:58:43;;;;;;;3.70;2.42;;;;;;;;;;1755403;82;21052;-73
2022/10/15 13:01:17;;;;;;;5.58;2.80;;;;;;;;;;1760479;81;21064;-73
2022/10/15 13:03:44;;;;;;;4.72;3.05;;;;;;;;;;1752131;82;21071;-72
2022/10/15 13:06:21;;;;;;;4.75;2.70;;;;;;;;;;1721940;82;21044;-73
2022/10/15 13:08:54;;;;;;;4.35;2.40;;;;;;;;;;1748989;82;21411;-73
2022/10/15 13:11:23;;;;;;;5.20;2.60;;;;;;;;;;1745367;81;21069;-73
2022/10/15 13:13:49;;;;;;;4.70;2.40;;;;;;;;;;1737883;82;20993;-74
2022/10/15 13:16:17;;;;;;;4.80;2.85;;;;;;;;;;1753686;81;21009;-72
2022/10/15 13:18:46;;;;;;;3.92;2.33;;;;;;;;;;1742221;81;21107;-72
2022/10/15 13:21:13;;;;;;;7.03;4.47;;;;;;;;;;1751198;82;21694;-71
2022/10/15 13:23:42;;;;;;;7.58;3.90;;;;;;;;;;1752229;82;21077;-72
2022/10/15 13:26:16;;;;;;;6.08;2.77;;;;;;;;;;1739515;81;21048;-72
2022/10/15 13:28:43;;;;;;;6.30;2.40;;;;;;;;;;1740015;82;21067;-72
2022/10/15 13:31:29;;;;;;;4.97;2.37;;;;;;;;;;1726335;82;21068;-72
2022/10/15 13:33:57;;;;;;;8.03;2.70;;;;;;;;;;1723536;83;20976;-72
2022/10/15 13:36:24;;;;;;;4.08;2.08;;;;;;;;;;1723350;83;21060;-72
2022/10/15 13:38:51;;;;;;;4.12;2.20;;;;;;;;;;1723664;83;21024;-72
2022/10/15 13:41:22;;;;;;;10.13;2.92;;;;;;;;;;1750762;82;21064;-72
2022/10/15 13:43:50;;;;;;;3.45;2.55;;;;;;;;;;1750475;81;21014;-72
2022/10/15 13:46:16;;;;;;;6.80;2.60;;;;;;;;;;1723542;83;21678;-71
2022/10/15 13:48:42;;;;;;;15.18;3.40;;;;;;;;;;1723198;83;21563;-71
2022/10/15 13:51:08;;;;;;;6.50;3.10;;;;;;;;;;1749166;82;21116;-72
2022/10/15 13:53:36;;;;;;;4.70;2.87;;;;;;;;;;1753255;81;21025;-72
2022/10/15 13:56:03;;;;;;;5.33;2.65;;;;;;;;;;1739657;81;21536;-72
2022/10/15 13:58:33;;;;;;;4.70;2.85;;;;;;;;;;1723480;83;21088;-72
2022/10/15 14:01:01;;;;;;;4.72;2.50;;;;;;;;;;1723705;82;21058;-71
2022/10/15 14:03:29;;;;;;;6.15;2.83;;;;;;;;;;1721826;83;22257;-72
2022/10/15 14:05:57;;;;;;;6.22;2.98;;;;;;;;;;1725239;82;21583;-72
2022/10/15 14:08:25;;;;;;;4.60;3.17;;;;;;;;;;1732319;82;21056;-73
2022/10/15 14:10:53;;;;;;;7.55;5.17;;;;;;;;;;1750059;82;21092;-73
2022/10/15 14:13:20;;;;;;;8.45;3.83;;;;;;;;;;1720519;82;21077;-73
2022/10/15 14:15:54;;;;;;;10.63;4.03;;;;;;;;;;1722778;82;21064;-73
2022/10/15 14:18:27;;;;;;;3.92;2.62;;;;;;;;;;1732194;82;21061;-71
2022/10/15 14:20:55;;;;;;;4.80;3.15;;;;;;;;;;1718007;82;21034;-73
2022/10/15 14:23:22;;;;;;;10.30;4.00;;;;;;;;;;1710129;84;21096;-73
2022/10/15 14:25:53;;;;;;;5.25;2.98;;;;;;;;;;1710066;84;21081;-72
2022/10/15 14:28:19;;;;;;;4.80;3.40;;;;;;;;;;1709667;83;21049;-72
2022/10/15 14:30:46;;;;;;;7.83;3.50;;;;;;;;;;1729316;82;21053;-73
2022/10/15 14:33:15;;;;;;;5.90;3.67;;;;;;;;;;1739105;82;21763;-72
2022/10/15 14:35:41;;;;;;;6.40;3.87;;;;;;;;;;1725309;82;21510;-72
2022/10/15 14:38:09;;;;;;;8.40;3.98;;;;;;;;;;1739074;82;21018;-72
2022/10/15 14:40:36;;;;;;;8.75;4.08;;;;;;;;;;1735509;82;21120;-72
2022/10/15 14:43:03;;;;;;;7.58;4.40;;;;;;;;;;1713854;82;21068;-72
2022/10/15 14:45:31;;;;;;;6.58;4.22;;;;;;;;;;1709341;84;21104;-73
2022/10/15 14:47:59;;;;;;;6.58;3.45;;;;;;;;;;1710890;82;21520;-72
2022/10/15 14:50:33;;;;;;;8.43;3.90;;;;;;;;;;1738322;82;21041;-71
2022/10/15 14:52:59;;;;;;;8.00;4.47;;;;;;;;;;1737552;82;20994;-71
2022/10/15 14:55:31;;;;;;;9.88;4.80;;;;;;;;;;1739591;82;21045;-71